createdAt,value
2023-04-30T00:00:36.261Z,9.05
2023-04-30T00:03:04.654Z,9.22
2023-04-30T00:05:32.705Z,9.04
2023-04-30T00:08:00.596Z,9.15
2023-04-30T00:10:28.340Z,8.99
2023-04-30T00:12:57.113Z,9.00
2023-04-30T00:15:24.950Z,8.84
2023-04-30T00:17:53.402Z,8.16
2023-04-30T00:20:21.179Z,8.09
2023-04-30T00:22:49.033Z,8.62
2023-04-30T00:25:16.933Z,8.70
2023-04-30T00:27:44.841Z,8.95
2023-04-30T00:30:12.981Z,8.95
2023-04-30T00:32:42.101Z,9.01
2023-04-30T00:35:10.023Z,8.92
2023-04-30T00:37:38.163Z,8.98
2023-04-30T00:40:06.807Z,8.99
2023-04-30T00:42:34.611Z,8.66
2023-04-30T00:45:02.367Z,8.41
2023-04-30T00:47:32.221Z,8.09
2023-04-30T00:50:00.220Z,7.99
2023-04-30T00:52:28.221Z,8.07
2023-04-30T00:54:56.010Z,8.13
2023-04-30T00:57:24.115Z,8.37
2023-04-30T00:59:52.051Z,8.36
2023-04-30T01:02:20.258Z,7.70
2023-04-30T01:04:48.045Z,7.46
2023-04-30T01:07:16.112Z,7.50
2023-04-30T01:09:43.850Z,7.69
2023-04-30T01:12:24.048Z,7.38
2023-04-30T01:14:58.215Z,7.14
2023-04-30T01:17:48.553Z,7.21
2023-04-30T01:20:16.739Z,7.36
2023-04-30T01:23:06.305Z,7.28
2023-04-30T01:25:40.457Z,7.82
2023-04-30T01:28:18.070Z,7.98
2023-04-30T01:30:46.536Z,7.90
2023-04-30T01:33:14.672Z,7.49
2023-04-30T01:35:54.810Z,7.55
2023-04-30T01:38:25.561Z,7.36
2023-04-30T01:40:59.605Z,7.53
2023-04-30T01:43:46.170Z,7.77
2023-04-30T01:46:25.433Z,7.98
2023-04-30T01:48:59.904Z,7.94
2023-04-30T01:51:56.107Z,7.69
2023-04-30T01:54:29.182Z,7.19
2023-04-30T01:57:13.653Z,7.64
2023-04-30T01:59:41.621Z,7.74
2023-04-30T02:02:10.056Z,7.46
2023-04-30T02:04:38.015Z,7.14
2023-04-30T02:07:05.717Z,6.70
2023-04-30T02:09:33.572Z,6.88
2023-04-30T02:12:01.314Z,7.29
2023-04-30T02:14:31.469Z,7.11
2023-04-30T02:16:59.301Z,6.75
2023-04-30T02:19:27.290Z,6.66
2023-04-30T02:21:55.110Z,6.75
2023-04-30T02:24:23.068Z,5.93
2023-04-30T02:26:51.237Z,6.70
2023-04-30T02:29:19.142Z,6.67
2023-04-30T02:31:46.888Z,6.27
2023-04-30T02:34:14.673Z,6.32
2023-04-30T02:36:42.358Z,6.45
2023-04-30T02:39:10.164Z,6.62
2023-04-30T02:41:38.107Z,6.33
2023-04-30T02:44:05.922Z,6.67
2023-04-30T02:46:33.983Z,6.75
2023-04-30T02:49:01.894Z,6.92
2023-04-30T02:51:29.784Z,7.07
2023-04-30T02:53:57.669Z,7.05
2023-04-30T02:56:25.434Z,6.97
2023-04-30T02:58:53.727Z,6.93
2023-04-30T03:01:21.583Z,6.90
2023-04-30T03:03:49.694Z,6.92
2023-04-30T03:06:17.539Z,6.62
2023-04-30T03:08:45.357Z,6.54
2023-04-30T03:11:13.196Z,6.75
2023-04-30T03:13:41.224Z,6.79
2023-04-30T03:16:09.006Z,6.55
2023-04-30T03:18:36.848Z,6.47
2023-04-30T03:21:04.798Z,5.93
2023-04-30T03:23:32.554Z,5.89
2023-04-30T03:26:00.500Z,6.20
2023-04-30T03:28:28.190Z,5.59
2023-04-30T03:30:56.058Z,5.93
2023-04-30T03:33:23.812Z,5.60
2023-04-30T03:35:51.990Z,5.83
2023-04-30T03:38:19.764Z,5.90
2023-04-30T03:40:47.716Z,6.05
2023-04-30T03:43:15.477Z,6.06
2023-04-30T03:45:43.326Z,5.94
2023-04-30T03:48:11.270Z,5.88
2023-04-30T03:50:39.083Z,6.17
2023-04-30T03:53:06.829Z,6.14
2023-04-30T03:55:36.065Z,6.14
2023-04-30T03:58:03.901Z,5.73
2023-04-30T04:00:31.757Z,5.60
2023-04-30T04:03:00.478Z,6.13
2023-04-30T04:05:29.894Z,6.44
2023-04-30T04:07:57.652Z,6.52
2023-04-30T04:10:25.486Z,6.75
2023-04-30T04:12:53.290Z,6.30
2023-04-30T04:15:21.237Z,6.56
2023-04-30T04:17:49.162Z,6.86
2023-04-30T04:20:17.800Z,7.09
2023-04-30T04:22:46.125Z,7.27
2023-04-30T04:25:14.326Z,7.21
2023-04-30T04:27:44.935Z,7.45
2023-04-30T04:30:13.815Z,7.49
2023-04-30T04:32:46.994Z,7.52
2023-04-30T04:35:15.885Z,7.66
2023-04-30T04:37:44.090Z,7.89
2023-04-30T04:40:12.585Z,8.08
2023-04-30T04:42:40.944Z,8.23
2023-04-30T04:45:09.869Z,8.41
2023-04-30T04:47:38.269Z,8.54
2023-04-30T04:50:06.870Z,8.68
2023-04-30T04:52:34.632Z,8.63
2023-04-30T04:55:02.548Z,8.73
2023-04-30T04:57:30.515Z,8.88
2023-04-30T04:59:58.347Z,9.01
2023-04-30T05:02:26.348Z,9.01
2023-04-30T05:04:54.248Z,9.23
2023-04-30T05:07:21.962Z,9.21
2023-04-30T05:09:49.857Z,9.31
2023-04-30T05:12:17.633Z,9.31
2023-04-30T05:14:45.499Z,9.51
2023-04-30T05:17:13.198Z,9.90
2023-04-30T05:19:41.049Z,9.56
2023-04-30T05:22:08.747Z,9.96
2023-04-30T05:24:36.586Z,9.95
2023-04-30T05:27:05.583Z,10.02
2023-04-30T05:29:33.478Z,10.31
2023-04-30T05:32:01.612Z,10.27
2023-04-30T05:34:29.518Z,10.80
2023-04-30T05:36:57.301Z,11.05
2023-04-30T05:39:25.121Z,10.94
2023-04-30T05:41:53.501Z,11.32
2023-04-30T05:44:21.298Z,11.63
2023-04-30T05:46:49.050Z,11.72
2023-04-30T05:49:16.790Z,11.81
2023-04-30T05:51:44.630Z,11.80
2023-04-30T05:54:12.342Z,11.75
2023-04-30T05:56:40.091Z,11.63
2023-04-30T05:59:07.921Z,11.65
2023-04-30T06:01:36.051Z,11.41
2023-04-30T06:04:05.070Z,11.75
2023-04-30T06:06:32.899Z,11.55
2023-04-30T06:09:00.844Z,11.62
2023-04-30T06:11:29.448Z,11.84
2023-04-30T06:13:57.233Z,12.07
2023-04-30T06:16:25.041Z,11.65
2023-04-30T06:18:53.852Z,11.65
2023-04-30T06:21:25.912Z,11.99
2023-04-30T06:23:53.722Z,12.14
2023-04-30T06:26:21.430Z,12.11
2023-04-30T06:28:49.216Z,12.02
2023-04-30T06:31:17.011Z,12.09
2023-04-30T06:33:44.795Z,12.40
2023-04-30T06:36:13.265Z,12.52
2023-04-30T06:38:41.544Z,12.26
2023-04-30T06:41:09.426Z,12.55
2023-04-30T06:43:37.132Z,12.75
2023-04-30T06:46:06.738Z,12.59
2023-04-30T06:48:34.583Z,12.38
2023-04-30T06:51:02.385Z,12.50
2023-04-30T06:53:30.227Z,12.54
2023-04-30T06:55:58.013Z,12.78
2023-04-30T06:58:25.808Z,12.11
2023-04-30T07:00:54.259Z,12.26
2023-04-30T07:03:22.180Z,12.57
2023-04-30T07:05:51.728Z,12.55
2023-04-30T07:08:19.497Z,12.91
2023-04-30T07:10:47.284Z,12.03
2023-04-30T07:13:15.031Z,12.67
2023-04-30T07:15:42.887Z,12.91
2023-04-30T07:18:10.669Z,12.71
2023-04-30T07:20:38.558Z,12.95
2023-04-30T07:23:06.314Z,13.26
2023-04-30T07:25:34.891Z,13.35
2023-04-30T07:28:02.632Z,13.40
2023-04-30T07:30:30.430Z,13.52
2023-04-30T07:32:58.238Z,13.26
2023-04-30T07:35:26.195Z,13.13
2023-04-30T07:37:53.996Z,13.43
2023-04-30T07:40:34.517Z,13.17
2023-04-30T07:43:04.726Z,12.65
2023-04-30T07:45:33.927Z,13.43
2023-04-30T07:48:01.891Z,13.27
2023-04-30T07:50:33.830Z,13.85
2023-04-30T07:53:01.928Z,14.25
2023-04-30T07:55:29.576Z,14.26
2023-04-30T07:57:57.399Z,14.20
2023-04-30T08:00:26.521Z,14.67
2023-04-30T08:02:54.318Z,14.11
2023-04-30T08:05:22.350Z,14.19
2023-04-30T08:07:50.022Z,14.84
2023-04-30T08:10:17.826Z,15.09
2023-04-30T08:12:45.758Z,15.54
2023-04-30T08:15:13.493Z,15.40
2023-04-30T08:17:41.333Z,15.94
2023-04-30T08:20:09.595Z,15.95
2023-04-30T08:22:37.462Z,16.34
2023-04-30T08:25:05.571Z,16.78
2023-04-30T08:27:33.428Z,16.49
2023-04-30T08:30:01.170Z,16.73
2023-04-30T08:32:29.901Z,17.56
2023-04-30T08:34:57.693Z,17.32
2023-04-30T08:37:25.628Z,17.34
2023-04-30T08:39:53.518Z,18.13
2023-04-30T08:42:22.438Z,17.81
2023-04-30T08:44:50.196Z,17.78
2023-04-30T08:47:18.627Z,18.31
2023-04-30T08:49:46.431Z,18.23
2023-04-30T08:52:14.241Z,18.40
2023-04-30T08:54:41.961Z,17.90
2023-04-30T08:57:10.581Z,18.20
2023-04-30T08:59:38.322Z,18.44
2023-04-30T09:02:06.460Z,18.75
2023-04-30T09:04:34.227Z,18.70
2023-04-30T09:07:05.157Z,18.92
2023-04-30T09:09:38.317Z,18.62
2023-04-30T09:12:19.074Z,18.44
2023-04-30T09:15:05.008Z,18.92
2023-04-30T09:17:33.632Z,18.71
2023-04-30T09:20:19.431Z,18.19
2023-04-30T09:22:47.286Z,18.79
2023-04-30T09:25:15.009Z,18.78
2023-04-30T09:27:42.894Z,18.86
2023-04-30T09:30:11.313Z,19.21
2023-04-30T09:32:54.931Z,19.60
2023-04-30T09:35:29.927Z,19.29
2023-04-30T09:38:02.394Z,18.67
2023-04-30T09:40:36.040Z,18.36
2023-04-30T09:43:03.834Z,19.34
2023-04-30T09:45:47.483Z,19.08
2023-04-30T09:48:22.692Z,18.39
2023-04-30T09:50:51.097Z,18.14
2023-04-30T09:53:19.311Z,17.97
2023-04-30T09:55:48.264Z,18.28
2023-04-30T09:58:17.048Z,18.86
2023-04-30T10:00:49.637Z,18.39
2023-04-30T10:03:17.632Z,17.89
2023-04-30T10:05:48.933Z,18.20
2023-04-30T10:08:26.897Z,18.76
2023-04-30T10:10:59.124Z,18.82
2023-04-30T10:13:29.775Z,19.22
2023-04-30T10:16:01.251Z,19.61
2023-04-30T10:18:31.533Z,19.44
2023-04-30T10:20:59.334Z,19.17
2023-04-30T10:23:27.228Z,18.45
2023-04-30T10:25:54.997Z,17.96
2023-04-30T10:28:23.758Z,18.05
2023-04-30T10:30:51.585Z,18.71
2023-04-30T10:33:49.780Z,18.16
2023-04-30T10:36:32.504Z,17.77
2023-04-30T10:39:00.365Z,18.09
2023-04-30T10:41:29.525Z,18.53
2023-04-30T10:44:01.882Z,18.19
2023-04-30T10:46:30.140Z,17.45
2023-04-30T10:48:57.988Z,17.78
2023-04-30T10:51:29.802Z,18.45
2023-04-30T10:53:57.624Z,18.20
2023-04-30T10:56:32.091Z,18.68
2023-04-30T10:59:03.116Z,18.51
2023-04-30T11:01:31.347Z,19.05
2023-04-30T11:04:06.607Z,18.88
2023-04-30T11:06:52.714Z,19.07
2023-04-30T11:09:24.247Z,18.48
2023-04-30T11:12:03.040Z,18.63
2023-04-30T11:14:34.178Z,18.61
2023-04-30T11:17:02.487Z,18.64
2023-04-30T11:19:31.237Z,17.49
2023-04-30T11:22:05.258Z,18.54
2023-04-30T11:25:03.153Z,18.07
2023-04-30T11:27:32.335Z,18.47
2023-04-30T11:30:00.375Z,19.06
2023-04-30T11:32:35.460Z,18.55
2023-04-30T11:35:04.389Z,18.74
2023-04-30T11:37:36.386Z,18.72
2023-04-30T11:40:08.699Z,19.04
2023-04-30T11:42:39.273Z,19.25
2023-04-30T11:45:11.179Z,19.28
2023-04-30T11:47:43.205Z,18.93
2023-04-30T11:50:13.046Z,18.32
2023-04-30T11:52:41.280Z,18.08
2023-04-30T11:55:13.925Z,16.42
2023-04-30T11:57:43.083Z,16.35
2023-04-30T12:00:12.922Z,16.58
2023-04-30T12:02:42.460Z,16.15
2023-04-30T12:05:20.894Z,15.77
2023-04-30T12:07:50.299Z,16.00
2023-04-30T12:10:21.191Z,16.14
2023-04-30T12:12:51.291Z,15.63
2023-04-30T12:15:26.308Z,16.08
2023-04-30T12:17:58.345Z,15.62
2023-04-30T12:20:28.234Z,15.72
2023-04-30T12:22:56.207Z,16.02
2023-04-30T12:25:24.058Z,16.42
2023-04-30T12:27:53.342Z,16.88
2023-04-30T12:30:25.388Z,17.33
2023-04-30T12:32:53.746Z,17.03
2023-04-30T12:35:22.941Z,17.26
2023-04-30T12:37:52.455Z,17.65
2023-04-30T12:40:21.647Z,17.28
2023-04-30T12:42:49.597Z,17.64
2023-04-30T12:46:08.687Z,17.08
2023-04-30T12:48:45.805Z,17.14
2023-04-30T12:51:19.637Z,17.69
2023-04-30T12:53:47.458Z,17.73
2023-04-30T12:56:16.764Z,16.76
2023-04-30T12:58:50.595Z,17.68
2023-04-30T13:01:23.967Z,17.50
2023-04-30T13:03:52.812Z,17.26
2023-04-30T13:06:22.642Z,17.58
2023-04-30T13:08:58.691Z,17.45
2023-04-30T13:11:27.701Z,17.57
2023-04-30T13:13:56.212Z,17.81
2023-04-30T13:16:26.919Z,18.12
2023-04-30T13:18:55.144Z,17.55
2023-04-30T13:21:23.090Z,17.45
2023-04-30T13:23:53.642Z,17.47
2023-04-30T13:26:26.493Z,17.19
2023-04-30T13:28:54.365Z,17.68
2023-04-30T13:31:22.573Z,17.22
2023-04-30T13:33:50.849Z,18.12
2023-04-30T13:36:18.702Z,18.65
2023-04-30T13:38:46.831Z,18.84
2023-04-30T13:41:14.823Z,18.87
2023-04-30T13:43:43.699Z,18.24
2023-04-30T13:46:11.504Z,18.78
2023-04-30T13:48:39.358Z,18.94
2023-04-30T13:51:07.480Z,19.00
2023-04-30T13:53:37.074Z,18.67
2023-04-30T13:56:05.833Z,18.47
2023-04-30T13:58:33.590Z,17.87
2023-04-30T14:01:01.483Z,18.08
2023-04-30T14:03:29.397Z,18.87
2023-04-30T14:05:58.134Z,18.36
2023-04-30T14:08:25.885Z,18.45
2023-04-30T14:10:53.750Z,18.95
2023-04-30T14:13:21.463Z,18.45
2023-04-30T14:15:49.206Z,17.70
2023-04-30T14:18:17.009Z,18.02
2023-04-30T14:20:44.815Z,18.52
2023-04-30T14:23:12.736Z,18.61
2023-04-30T14:25:40.681Z,19.27
2023-04-30T14:28:08.426Z,18.59
2023-04-30T14:30:36.591Z,18.48
2023-04-30T14:33:04.419Z,18.78
2023-04-30T14:35:33.010Z,19.11
2023-04-30T14:38:00.832Z,19.38
2023-04-30T14:40:28.889Z,18.94
2023-04-30T14:42:56.674Z,19.61
2023-04-30T14:45:24.483Z,19.94
2023-04-30T14:47:52.254Z,19.40
2023-04-30T14:50:20.037Z,18.81
2023-04-30T14:52:47.839Z,19.24
2023-04-30T14:55:15.556Z,19.06
2023-04-30T14:57:43.367Z,19.39
2023-04-30T15:00:12.271Z,19.15
2023-04-30T15:02:40.208Z,19.48
2023-04-30T15:05:08.707Z,19.27
2023-04-30T15:07:36.918Z,18.84
2023-04-30T15:10:06.627Z,17.15
2023-04-30T15:12:35.731Z,17.84
2023-04-30T15:15:04.718Z,17.37
2023-04-30T15:17:36.699Z,17.32
2023-04-30T15:20:05.383Z,17.51
2023-04-30T15:22:33.506Z,17.03
2023-04-30T15:25:01.274Z,16.62
2023-04-30T15:27:29.424Z,16.94
2023-04-30T15:29:58.568Z,16.99
2023-04-30T15:32:26.452Z,17.08
2023-04-30T15:34:55.217Z,17.20
2023-04-30T15:37:22.986Z,16.62
2023-04-30T15:39:50.916Z,16.72
2023-04-30T15:42:18.808Z,16.81
2023-04-30T15:44:46.509Z,16.34
2023-04-30T15:47:14.277Z,16.53
2023-04-30T15:49:42.382Z,16.45
2023-04-30T15:52:10.527Z,16.31
2023-04-30T15:54:38.349Z,16.21
2023-04-30T15:57:06.129Z,16.76
2023-04-30T15:59:33.898Z,17.15
2023-04-30T16:02:02.597Z,16.47
2023-04-30T16:04:30.585Z,16.31
2023-04-30T16:06:58.345Z,16.09
2023-04-30T16:09:27.027Z,15.68
2023-04-30T16:11:55.871Z,15.64
2023-04-30T16:14:23.616Z,15.80
2023-04-30T16:16:51.404Z,15.77
2023-04-30T16:19:19.492Z,15.67
2023-04-30T16:21:47.350Z,15.72
2023-04-30T16:24:16.365Z,16.09
2023-04-30T16:26:44.224Z,15.97
2023-04-30T16:29:12.049Z,15.48
2023-04-30T16:31:39.923Z,15.10
2023-04-30T16:34:11.992Z,15.21
2023-04-30T16:36:40.376Z,15.08
2023-04-30T16:39:08.073Z,15.31
2023-04-30T16:41:35.854Z,15.29
2023-04-30T16:44:03.604Z,15.15
2023-04-30T16:46:31.796Z,15.38
2023-04-30T16:49:00.011Z,15.74
2023-04-30T16:51:27.966Z,15.52
2023-04-30T16:53:55.779Z,15.45
2023-04-30T16:56:23.560Z,15.29
2023-04-30T16:58:51.445Z,14.96
2023-04-30T17:01:19.336Z,15.02
2023-04-30T17:03:47.453Z,14.55
2023-04-30T17:06:15.386Z,14.46
2023-04-30T17:08:43.158Z,14.58
2023-04-30T17:11:10.934Z,14.58
2023-04-30T17:13:38.730Z,14.23
2023-04-30T17:16:06.786Z,14.25
2023-04-30T17:18:34.600Z,13.99
2023-04-30T17:21:02.400Z,13.65
2023-04-30T17:23:30.377Z,13.79
2023-04-30T17:25:58.227Z,13.76
2023-04-30T17:28:26.095Z,13.52
2023-04-30T17:30:53.890Z,13.62
2023-04-30T17:33:21.732Z,13.79
2023-04-30T17:35:50.509Z,13.52
2023-04-30T17:38:18.336Z,13.38
2023-04-30T17:40:46.129Z,13.27
2023-04-30T17:43:14.029Z,13.11
2023-04-30T17:45:43.157Z,13.03
2023-04-30T17:48:11.187Z,13.03
2023-04-30T17:50:38.948Z,12.99
2023-04-30T17:53:06.771Z,12.82
2023-04-30T17:55:34.562Z,12.72
2023-04-30T17:58:03.982Z,13.00
2023-04-30T18:00:31.765Z,13.33
2023-04-30T18:02:59.765Z,13.20
2023-04-30T18:05:27.506Z,13.16
2023-04-30T18:07:55.293Z,13.09
2023-04-30T18:10:23.038Z,12.87
2023-04-30T18:12:50.917Z,12.59
2023-04-30T18:15:18.943Z,13.05
2023-04-30T18:17:46.759Z,12.94
2023-04-30T18:20:14.635Z,12.92
2023-04-30T18:22:43.652Z,13.21
2023-04-30T18:25:13.146Z,12.70
2023-04-30T18:27:41.120Z,12.81
2023-04-30T18:30:09.329Z,12.46
2023-04-30T18:32:37.402Z,12.57
2023-04-30T18:35:05.648Z,12.40
2023-04-30T18:37:33.890Z,12.72
2023-04-30T18:40:01.625Z,12.78
2023-04-30T18:42:30.197Z,13.12
2023-04-30T18:44:58.094Z,12.32
2023-04-30T18:47:25.990Z,12.54
2023-04-30T18:49:54.059Z,12.55
2023-04-30T18:52:22.896Z,13.13
2023-04-30T18:54:51.167Z,12.71
2023-04-30T18:57:19.527Z,12.52
2023-04-30T18:59:48.195Z,12.37
2023-04-30T19:02:16.566Z,12.91
2023-04-30T19:04:44.370Z,12.98
2023-04-30T19:07:12.471Z,13.20
2023-04-30T19:09:40.308Z,13.20
2023-04-30T19:12:08.519Z,13.06
2023-04-30T19:14:37.424Z,12.73
2023-04-30T19:17:05.497Z,12.24
2023-04-30T19:19:33.405Z,12.49
2023-04-30T19:22:01.347Z,12.26
2023-04-30T19:24:29.235Z,12.14
2023-04-30T19:26:57.720Z,12.74
2023-04-30T19:29:26.339Z,12.50
2023-04-30T19:31:55.237Z,12.18
2023-04-30T19:34:23.876Z,12.54
2023-04-30T19:36:51.652Z,12.74
2023-04-30T19:39:20.376Z,12.77
2023-04-30T19:41:51.028Z,12.54
2023-04-30T19:44:20.018Z,12.14
2023-04-30T19:49:15.975Z,12.38
2023-04-30T19:51:43.740Z,12.15
2023-04-30T19:54:14.297Z,12.01
2023-04-30T19:56:42.237Z,11.77
2023-04-30T19:59:10.056Z,11.85
2023-04-30T20:01:38.572Z,12.17
2023-04-30T20:04:06.982Z,12.13
2023-04-30T20:06:34.905Z,11.90
2023-04-30T20:09:02.856Z,11.86
2023-04-30T20:11:30.661Z,11.66
2023-04-30T20:13:58.486Z,11.66
2023-04-30T20:16:26.414Z,11.86
2023-04-30T20:18:54.194Z,12.12
2023-04-30T20:21:24.416Z,11.12
2023-04-30T20:23:52.319Z,11.75
2023-04-30T20:26:21.511Z,11.55
2023-04-30T20:28:49.307Z,11.03
2023-04-30T20:31:17.149Z,11.10
2023-04-30T20:33:46.011Z,11.16
2023-04-30T20:36:13.732Z,10.95
2023-04-30T20:38:41.706Z,11.02
2023-04-30T20:41:10.070Z,11.14
2023-04-30T20:43:38.114Z,11.33
2023-04-30T20:46:05.940Z,11.54
2023-04-30T20:48:33.715Z,12.06
2023-04-30T20:51:01.451Z,12.30
2023-04-30T20:53:29.458Z,12.31
2023-04-30T20:56:00.197Z,12.36
2023-04-30T20:58:28.300Z,12.48
2023-04-30T21:00:56.671Z,11.25
2023-04-30T21:03:24.985Z,12.05
2023-04-30T21:05:52.796Z,12.00
2023-04-30T21:08:20.633Z,12.35
2023-04-30T21:10:48.810Z,12.64
2023-04-30T21:13:17.167Z,12.50
2023-04-30T21:15:45.546Z,12.43
2023-04-30T21:18:13.431Z,11.50
2023-04-30T21:20:41.251Z,11.63
2023-04-30T21:23:09.113Z,11.91
2023-04-30T21:25:38.103Z,12.08
2023-04-30T21:28:06.473Z,12.14
2023-04-30T21:30:35.534Z,11.95
2023-04-30T21:33:04.018Z,11.91
2023-04-30T21:35:33.136Z,11.74
2023-04-30T21:38:01.143Z,12.03
2023-04-30T21:40:32.226Z,11.90
2023-04-30T21:43:01.367Z,12.07
2023-04-30T21:45:29.534Z,12.12
2023-04-30T21:47:57.488Z,12.11
2023-04-30T21:50:25.259Z,12.11
2023-04-30T21:52:53.348Z,12.15
2023-04-30T21:55:21.192Z,12.15
2023-04-30T21:57:50.925Z,11.47
2023-04-30T22:00:18.886Z,11.16
2023-04-30T22:02:50.725Z,10.57
2023-04-30T22:05:19.655Z,10.94
2023-04-30T22:07:47.686Z,10.77
2023-04-30T22:10:15.635Z,10.57
2023-04-30T22:12:47.104Z,10.23
2023-04-30T22:15:15.648Z,10.18
2023-04-30T22:17:43.477Z,10.26
2023-04-30T22:20:11.607Z,10.46
2023-04-30T22:22:39.550Z,10.77
2023-04-30T22:25:08.904Z,11.03
2023-04-30T22:27:36.770Z,11.12
2023-04-30T22:30:06.151Z,11.31
2023-04-30T22:32:34.456Z,10.82
2023-04-30T22:35:03.365Z,10.79
2023-04-30T22:37:31.445Z,10.29
2023-04-30T22:39:59.294Z,10.67
2023-04-30T22:42:27.193Z,10.80
2023-04-30T22:44:54.926Z,10.95
2023-04-30T22:47:22.835Z,11.11
2023-04-30T22:49:50.581Z,11.25
2023-04-30T22:52:18.317Z,11.25
2023-04-30T22:54:47.319Z,11.23
2023-04-30T22:57:15.051Z,11.11
2023-04-30T22:59:42.895Z,10.92
2023-04-30T23:02:10.651Z,10.02
2023-04-30T23:04:38.537Z,10.42
2023-04-30T23:07:06.604Z,10.79
2023-04-30T23:09:34.368Z,10.85
2023-04-30T23:12:02.439Z,11.07
2023-04-30T23:14:30.207Z,10.96
2023-04-30T23:16:58.079Z,10.93
2023-04-30T23:19:25.996Z,11.06
2023-04-30T23:21:53.990Z,11.04
2023-04-30T23:24:21.760Z,10.96
2023-04-30T23:26:49.428Z,10.90
2023-04-30T23:29:17.429Z,10.94
2023-04-30T23:31:45.350Z,11.06
2023-04-30T23:34:13.254Z,10.95
2023-04-30T23:36:41.055Z,10.98
2023-04-30T23:39:09.793Z,10.96
2023-04-30T23:41:37.488Z,10.74
2023-04-30T23:44:05.410Z,10.84
2023-04-30T23:46:33.195Z,10.51
2023-04-30T23:49:01.100Z,10.45
2023-04-30T23:51:28.847Z,10.21
2023-04-30T23:53:56.650Z,9.85
2023-04-30T23:56:24.418Z,9.97
2023-04-30T23:58:52.266Z,10.19
